Time;durP1;ratioP1;P1;durP2;ratioP2;P2;SDS_P1;SDS_P2;PMS_P1;PMS_P2;Temp;Humidity;BMP_temperature;BMP_pressure;BME280_temperature;BME280_humidity;BME280_pressure;Samples;Min_cycle;Max_cycle;Signal;HPM_P1;HPM_P2
2023/02/23 00:01:50;;;;;;;62.17;37.55;;;9.10;99.90;;;-144.05;83.86;56984.78;5040913;28;20036;-79
2023/02/23 00:04:19;;;;;;;56.40;36.45;;;9.10;99.90;;;-144.05;84.09;57012.38;5042251;28;20036;-78
2023/02/23 00:06:45;;;;;;;62.17;39.17;;;9.10;99.90;;;-144.05;84.35;56986.91;5042476;28;20103;-80
2023/02/23 00:09:21;;;;;;;60.65;36.83;;;9.10;99.90;;;-144.05;83.79;56986.91;5023018;28;20021;-80
2023/02/23 00:11:54;;;;;;;60.28;37.97;;;9.10;99.90;;;-144.05;83.92;56997.50;5043241;28;20022;-80
2023/02/23 00:14:26;;;;;;;58.72;37.97;;;9.10;99.90;;;-144.05;84.18;56993.25;5041776;28;20037;-80
2023/02/23 00:16:53;;;;;;;59.53;38.28;;;9.10;99.90;;;-144.05;84.12;56997.50;5024007;28;20021;-79
2023/02/23 00:19:19;;;;;;;59.67;37.08;;;9.10;99.90;;;-144.05;84.03;56969.91;5041211;28;20029;-81
2023/02/23 00:21:45;;;;;;;65.18;40.13;;;9.10;99.90;;;-144.05;84.54;57029.38;5023423;28;20392;-81
2023/02/23 00:24:18;;;;;;;67.32;40.08;;;9.00;99.90;;;-144.05;84.27;56997.50;5027328;28;20029;-80
2023/02/23 00:26:46;;;;;;;60.78;39.35;;;9.00;99.90;;;-144.05;84.32;56989.00;5024206;28;20025;-81
2023/02/23 00:29:20;;;;;;;58.22;37.97;;;9.10;99.90;;;-144.05;84.31;57023.00;5042237;28;20040;-81
2023/02/23 00:31:48;;;;;;;64.40;38.42;;;9.00;99.90;;;-144.05;85.00;57010.25;5041603;28;20083;-79
2023/02/23 00:34:19;;;;;;;58.88;39.65;;;9.00;99.90;;;-144.05;84.66;56997.50;5037868;28;20028;-79
2023/02/23 00:36:50;;;;;;;61.85;39.28;;;9.00;99.90;;;-144.05;84.88;57020.88;5039874;28;20033;-79
2023/02/23 00:39:25;;;;;;;63.90;39.88;;;9.00;99.90;;;-144.05;84.66;57012.38;5025063;28;20052;-81
2023/02/23 00:41:54;;;;;;;66.97;41.72;;;9.00;99.90;;;-144.05;84.97;56995.38;5023900;28;20053;-79
2023/02/23 00:44:23;;;;;;;63.90;41.17;;;9.00;99.90;;;-144.05;84.69;57008.13;5042630;28;20053;-81
2023/02/23 00:46:51;;;;;;;66.55;41.83;;;9.00;99.90;;;-144.05;84.53;57012.38;5038068;28;20025;-80
2023/02/23 00:49:20;;;;;;;63.83;39.92;;;9.00;99.90;;;-144.05;84.64;56959.28;5039930;28;20026;-78
2023/02/23 00:51:47;;;;;;;73.78;45.05;;;9.00;99.90;;;-144.05;85.42;56984.78;5038843;28;20319;-79
2023/02/23 00:54:15;;;;;;;68.47;42.33;;;9.00;99.90;;;-144.05;85.29;56974.16;5038360;28;20416;-78
2023/02/23 00:56:42;;;;;;;66.53;42.63;;;9.00;99.90;;;-144.05;85.11;57001.75;5039306;28;20436;-80
2023/02/23 00:59:09;;;;;;;69.45;43.17;;;9.00;99.90;;;-144.05;85.25;57012.38;5019669;28;20576;-81
2023/02/23 01:01:36;;;;;;;69.47;43.28;;;9.00;99.90;;;-144.05;85.54;56991.13;5042944;28;20049;-79
2023/02/23 01:04:03;;;;;;;70.93;42.22;;;9.00;99.90;;;-144.05;85.39;56993.25;5042165;28;20037;-79
2023/02/23 01:06:29;;;;;;;75.30;44.47;;;9.00;99.90;;;-144.05;85.32;57001.75;5022443;28;20080;-79
2023/02/23 01:08:55;;;;;;;72.95;41.53;;;9.00;99.90;;;-144.05;85.11;57003.88;5041004;28;20025;-81
2023/02/23 01:11:27;;;;;;;74.22;43.15;;;9.00;99.90;;;-144.05;85.03;56976.28;5023609;28;20022;-80
2023/02/23 01:13:58;;;;;;;72.47;44.40;;;9.00;99.90;;;-144.05;85.28;56976.28;5024304;28;20098;-80
2023/02/23 01:16:30;;;;;;;75.05;45.53;;;9.00;99.90;;;-144.05;85.31;56989.00;5024348;28;20091;-80
2023/02/23 01:19:02;;;;;;;76.50;45.90;;;9.00;99.90;;;-144.05;85.75;57025.13;5042186;28;20040;-81
2023/02/23 01:21:40;;;;;;;72.57;42.85;;;9.00;99.90;;;-144.05;85.40;57001.75;5042573;28;20029;-80
2023/02/23 01:24:07;;;;;;;79.47;46.08;;;9.00;99.90;;;-144.05;85.47;56993.25;5025276;28;20033;-82
2023/02/23 01:26:40;;;;;;;78.78;46.20;;;9.00;99.90;;;-144.05;85.52;57010.25;5043414;28;20048;-80
2023/02/23 01:29:15;;;;;;;81.68;48.30;;;9.00;99.90;;;-144.05;85.34;56999.63;5042703;28;20057;-79
2023/02/23 01:31:47;;;;;;;81.65;46.72;;;9.00;99.90;;;-144.05;85.72;56989.00;5025473;28;20053;-81
2023/02/23 01:34:14;;;;;;;80.68;46.45;;;9.00;99.90;;;-144.05;85.71;57014.50;5025426;28;20025;-79
2023/02/23 01:36:43;;;;;;;76.85;44.90;;;9.00;99.90;;;-144.05;85.70;56997.50;5043332;28;20044;-80
2023/02/23 01:39:19;;;;;;;90.65;51.08;;;9.00;99.90;;;-144.05;85.94;56986.91;5044106;28;20029;-81
2023/02/23 01:41:45;;;;;;;85.38;46.88;;;9.00;99.90;;;-144.05;86.08;57001.75;5027293;28;20036;-80
2023/02/23 01:44:11;;;;;;;87.82;47.88;;;9.00;99.90;;;-144.05;85.77;56980.53;5044153;28;20052;-82
2023/02/23 01:46:45;;;;;;;84.82;50.35;;;9.00;99.90;;;-144.05;85.96;56995.38;5026406;28;20025;-82
2023/02/23 01:49:24;;;;;;;83.28;48.38;;;9.00;99.90;;;-144.05;86.00;57006.00;5044560;28;20033;-81
2023/02/23 01:52:05;;;;;;;81.38;46.17;;;9.00;99.90;;;-144.05;85.87;57012.38;5042107;28;20009;-78
2023/02/23 01:54:38;;;;;;;82.88;47.78;;;9.00;99.90;;;-144.05;85.90;57008.13;5038802;28;20059;-80
2023/02/23 01:57:09;;;;;;;82.88;46.90;;;8.90;99.90;;;-144.05;86.14;57016.63;5040845;28;20025;-78
2023/02/23 01:59:44;;;;;;;83.70;47.13;;;8.90;99.90;;;-144.05;86.24;56978.41;5047431;28;20048;-79
2023/02/23 02:02:12;;;;;;;87.00;47.33;;;9.00;99.90;;;-144.05;86.46;57018.75;5052514;28;20056;-80
2023/02/23 02:04:44;;;;;;;80.05;43.35;;;9.00;99.90;;;-144.05;86.36;56991.13;5055717;28;20056;-79
2023/02/23 02:07:25;;;;;;;77.30;45.42;;;9.00;99.90;;;-144.05;86.57;57003.88;5039193;28;20057;-77
2023/02/23 02:12:43;;;;;;;;;;;8.90;99.90;;;-144.05;86.56;57012.38;5054545;28;20026;-80
2023/02/23 02:15:16;;;;;;;74.68;41.72;;;8.90;99.90;;;-144.05;86.32;56993.25;5030660;28;19913;-82
2023/02/23 02:18:49;;;;;;;88.70;49.58;;;8.90;99.90;;;-144.05;86.54;56997.50;5042992;28;20033;-79
2023/02/23 02:21:55;;;;;;;82.35;46.00;;;8.90;99.90;;;-144.05;86.69;57006.00;5031568;28;20048;-81
2023/02/23 02:24:59;;;;;;;78.47;46.60;;;8.90;99.90;;;-144.05;86.88;57014.50;5035667;28;20036;-81
2023/02/23 02:27:53;;;;;;;85.95;48.72;;;8.90;99.90;;;-144.05;86.63;56980.53;5036287;28;20465;-82
2023/02/23 02:30:58;;;;;;;88.82;49.92;;;8.90;99.90;;;-144.05;87.16;56989.00;5020023;28;20036;-82
2023/02/23 02:33:57;;;;;;;82.55;47.30;;;8.90;99.90;;;-144.05;87.10;56993.25;5024830;28;20038;-81
2023/02/23 02:37:11;;;;;;;93.20;50.63;;;8.90;99.90;;;-144.05;87.02;57012.38;5034705;28;20560;-81
2023/02/23 02:40:14;;;;;;;86.85;48.75;;;8.90;99.90;;;-144.05;87.49;57010.25;5034067;28;20044;-81
2023/02/23 02:43:11;;;;;;;86.47;46.80;;;8.90;99.90;;;-144.05;87.38;56997.50;5015495;28;20025;-82
2023/02/23 02:46:35;;;;;;;94.70;52.03;;;8.90;99.90;;;-144.05;87.31;57010.25;5032884;28;20477;-81
2023/02/23 02:49:28;;;;;;;90.75;48.58;;;8.90;99.90;;;-144.05;87.55;57008.13;5032250;28;20084;-79
2023/02/23 02:52:19;;;;;;;92.97;48.30;;;8.90;99.90;;;-144.05;87.56;56978.41;5015844;28;20033;-80
2023/02/23 02:55:08;;;;;;;91.85;47.92;;;8.90;99.90;;;-144.05;87.55;56976.28;5040537;28;20140;-79
2023/02/23 02:57:35;;;;;;;102.20;52.30;;;8.90;99.90;;;-144.05;87.47;56989.00;5023667;28;20029;-81
2023/02/23 04:18:32;;;;;;;105.40;53.50;;;8.80;99.90;;;-144.05;89.12;56974.16;5041887;28;20026;-78
2023/02/23 04:21:00;;;;;;;101.43;52.88;;;8.70;99.90;;;-144.05;88.98;56995.38;5037790;28;20025;-81
2023/02/23 04:23:28;;;;;;;100.72;53.47;;;8.80;99.90;;;-144.05;89.25;56989.00;5029168;28;20033;-79
2023/02/23 04:25:55;;;;;;;100.57;52.60;;;8.80;99.90;;;-144.05;89.22;57006.00;5035883;28;20037;-79
2023/02/23 04:28:24;;;;;;;103.55;54.70;;;8.80;99.90;;;-144.05;89.06;56986.91;5051905;28;20021;-80
2023/02/23 04:30:51;;;;;;;113.53;58.15;;;8.80;99.90;;;-144.05;89.06;57016.63;5045220;28;20037;-78
2023/02/23 04:33:18;;;;;;;120.05;58.83;;;8.80;99.90;;;-144.05;89.26;57001.75;5038367;28;20527;-80
2023/02/23 04:35:44;;;;;;;110.55;58.53;;;8.80;99.90;;;-144.05;89.28;57018.75;5037837;28;20075;-78
2023/02/23 04:38:10;;;;;;;105.13;56.20;;;8.80;99.90;;;-144.05;89.36;56965.66;5019711;28;20033;-78
2023/02/23 04:40:36;;;;;;;111.75;54.50;;;8.80;99.90;;;-144.05;89.56;57006.00;5038234;28;20540;-81
2023/02/23 04:43:02;;;;;;;108.35;58.17;;;8.80;99.90;;;-144.05;89.21;56999.63;5038764;28;20043;-79
2023/02/23 04:45:28;;;;;;;106.63;55.13;;;8.80;99.90;;;-144.05;89.51;57008.13;5040238;28;20025;-80
2023/02/23 04:47:54;;;;;;;107.18;54.20;;;8.80;99.90;;;-144.05;89.48;57003.88;5044833;28;20030;-80
2023/02/23 04:50:21;;;;;;;97.63;54.20;;;8.80;99.90;;;-144.05;89.39;57008.13;5027219;28;20034;-81
2023/02/23 04:52:47;;;;;;;98.47;54.40;;;8.80;99.90;;;-144.05;89.48;57001.75;5026400;28;20056;-80
2023/02/23 04:55:22;;;;;;;111.00;56.78;;;8.80;99.90;;;-144.05;89.51;57018.75;5044284;28;20056;-80
2023/02/23 04:57:49;;;;;;;111.60;56.05;;;8.80;99.90;;;-144.05;89.96;57001.75;5023999;28;20033;-78
2023/02/23 05:00:17;;;;;;;107.43;56.28;;;8.80;99.90;;;-144.05;89.81;56986.91;5041741;28;20046;-79
2023/02/23 05:02:44;;;;;;;98.25;52.88;;;8.70;99.90;;;-144.05;89.92;56984.78;5042221;28;20037;-81
2023/02/23 05:05:11;;;;;;;106.28;56.35;;;8.70;99.90;;;-144.05;89.87;56974.16;5039903;28;20037;-78
2023/02/23 05:07:38;;;;;;;118.95;60.38;;;8.70;99.90;;;-144.05;89.92;56984.78;5041466;28;20048;-80
2023/02/23 05:10:06;;;;;;;114.30;59.17;;;8.80;99.90;;;-144.05;89.86;57006.00;5039695;28;20116;-79
2023/02/23 05:12:33;;;;;;;109.47;59.55;;;8.70;99.90;;;-144.05;89.99;56995.38;5041853;28;20069;-80
2023/02/23 05:14:59;;;;;;;112.93;57.50;;;8.70;99.90;;;-144.05;89.81;56997.50;5023214;28;20071;-79
2023/02/23 05:17:24;;;;;;;113.95;55.90;;;8.70;99.90;;;-144.05;89.11;57025.13;5020619;28;20037;-78
2023/02/23 05:19:51;;;;;;;109.95;56.33;;;8.70;99.90;;;-144.05;89.27;57014.50;5020918;28;20057;-80
2023/02/23 05:22:17;;;;;;;113.78;57.38;;;8.70;99.90;;;-144.05;89.31;57006.00;5047078;28;20086;-80
2023/02/23 05:24:43;;;;;;;107.90;55.25;;;8.60;99.90;;;-144.05;89.19;56995.38;5045090;28;20040;-81
2023/02/23 05:27:12;;;;;;;113.07;54.88;;;8.60;99.90;;;-144.05;89.36;57025.13;5044129;28;20041;-80
2023/02/23 05:29:39;;;;;;;115.80;57.80;;;8.60;99.90;;;-144.05;89.46;57008.13;5024003;28;20063;-80
2023/02/23 05:32:05;;;;;;;113.35;56.60;;;8.60;99.90;;;-144.05;89.56;56999.63;5039402;28;20156;-79
2023/02/23 05:34:31;;;;;;;114.68;56.95;;;8.60;99.90;;;-144.05;89.43;57003.88;5020390;28;20025;-78
2023/02/23 05:36:57;;;;;;;112.88;56.35;;;8.50;99.90;;;-144.05;89.64;56986.91;5037955;28;20033;-81
2023/02/23 05:39:23;;;;;;;124.18;57.00;;;8.50;99.90;;;-144.05;89.44;57025.13;5038228;28;20065;-79
2023/02/23 05:41:49;;;;;;;104.45;51.88;;;8.50;99.90;;;-144.05;89.35;56986.91;5037064;28;20029;-78
2023/02/23 05:44:15;;;;;;;123.50;57.70;;;8.50;99.90;;;-144.05;89.65;57001.75;5036478;28;20030;-80
2023/02/23 05:46:41;;;;;;;116.90;55.00;;;8.50;99.90;;;-144.05;89.64;57008.13;5017006;28;20036;-80
2023/02/23 05:49:07;;;;;;;120.70;57.78;;;8.50;99.90;;;-144.05;89.79;57008.13;5033682;28;20057;-80
2023/02/23 05:51:34;;;;;;;117.95;57.75;;;8.50;99.90;;;-144.05;89.66;57003.88;5033312;28;20036;-81
2023/02/23 05:54:00;;;;;;;124.15;58.47;;;8.50;99.90;;;-144.05;89.76;56993.25;5017017;28;20511;-78
2023/02/23 05:56:27;;;;;;;118.20;57.55;;;8.50;99.90;;;-144.05;89.72;57016.63;5016816;28;20036;-79
2023/02/23 05:58:57;;;;;;;117.20;56.42;;;8.40;99.90;;;-144.05;89.59;57003.88;5034493;28;20036;-79
2023/02/23 06:01:26;;;;;;;117.63;59.70;;;8.40;99.90;;;-144.05;89.65;56989.00;5038074;28;20060;-79
2023/02/23 06:03:52;;;;;;;119.28;58.45;;;8.40;99.90;;;-144.05;89.68;57012.38;5022986;28;20103;-79
2023/02/23 06:06:19;;;;;;;115.88;58.22;;;8.40;99.90;;;-144.05;89.77;57006.00;5038952;28;20025;-79
2023/02/23 06:08:45;;;;;;;110.53;55.53;;;8.40;99.90;;;-144.05;89.81;57008.13;5038581;28;20057;-79
2023/02/23 06:11:11;;;;;;;121.75;56.38;;;8.40;99.90;;;-144.05;89.64;57018.75;5039821;28;20084;-78
2023/02/23 06:13:37;;;;;;;115.25;57.50;;;8.50;99.90;;;-144.05;89.59;57014.50;5038866;28;20029;-80
2023/02/23 06:16:04;;;;;;;121.57;57.75;;;8.40;99.90;;;-144.05;89.66;57008.13;5038915;28;20021;-79
2023/02/23 06:18:30;;;;;;;126.18;57.65;;;8.40;99.90;;;-144.05;89.61;57003.88;5038968;28;20034;-80
2023/02/23 06:20:59;;;;;;;122.55;58.53;;;8.40;99.90;;;-144.05;89.89;57014.50;5039065;28;20033;-79
2023/02/23 06:23:27;;;;;;;118.68;55.67;;;8.40;99.90;;;-144.05;89.94;56993.25;5021292;28;20033;-80
2023/02/23 06:25:53;;;;;;;133.00;59.33;;;8.40;99.90;;;-144.05;90.10;56982.66;5037926;28;20085;-81
2023/02/23 06:28:19;;;;;;;113.93;56.42;;;8.40;99.90;;;-144.05;90.22;57006.00;5037676;28;20041;-78
2023/02/23 06:30:45;;;;;;;114.30;54.83;;;8.40;99.90;;;-144.05;90.23;56999.63;5037510;28;20033;-77
2023/02/23 06:33:12;;;;;;;127.47;57.63;;;8.40;99.90;;;-144.05;90.20;57001.75;5035857;28;20018;-78
2023/02/23 06:35:38;;;;;;;126.25;57.35;;;8.30;99.90;;;-144.05;90.19;57008.13;5037824;28;20051;-82
2023/02/23 06:38:05;;;;;;;122.40;58.55;;;8.40;99.90;;;-144.05;90.47;57001.75;5037289;28;20049;-79
2023/02/23 06:40:32;;;;;;;123.13;58.65;;;8.30;99.90;;;-144.05;90.22;57008.13;5037514;28;20021;-77
2023/02/23 06:42:59;;;;;;;135.07;58.35;;;8.40;99.90;;;-144.05;90.64;57003.88;5035347;28;20037;-80
2023/02/23 06:45:25;;;;;;;126.50;56.97;;;8.40;99.90;;;-144.05;90.53;56993.25;5035794;28;20117;-77
2023/02/23 06:47:52;;;;;;;130.75;57.95;;;8.40;99.90;;;-144.05;90.30;57016.63;5019095;28;20048;-77
2023/02/23 06:50:18;;;;;;;137.20;58.95;;;8.40;99.90;;;-144.05;90.19;57023.00;5017926;28;20387;-78
2023/02/23 06:52:44;;;;;;;129.15;59.78;;;8.40;99.90;;;-144.05;89.98;56991.13;5018579;28;20104;-79
2023/02/23 06:55:12;;;;;;;122.85;56.97;;;8.40;99.90;;;-144.05;89.94;57020.88;5019862;28;20117;-80
2023/02/23 06:57:38;;;;;;;136.02;58.33;;;8.40;99.90;;;-144.05;89.86;57008.13;5019661;28;20370;-79
2023/02/23 07:00:05;;;;;;;137.63;59.08;;;8.40;99.90;;;-144.05;89.76;57023.00;5018949;28;20033;-76
2023/02/23 07:02:30;;;;;;;137.20;58.22;;;8.40;99.90;;;-144.05;89.63;57023.00;5036365;28;20504;-79
2023/02/23 07:04:57;;;;;;;127.65;57.90;;;8.40;99.90;;;-144.05;89.81;57006.00;5036447;28;20034;-79
2023/02/23 07:07:23;;;;;;;135.52;57.47;;;8.40;99.90;;;-144.05;89.96;57006.00;5018561;28;20156;-78
2023/02/23 07:09:49;;;;;;;140.07;58.95;;;8.40;99.90;;;-144.05;89.96;57018.75;5017538;28;20044;-78
2023/02/23 07:12:15;;;;;;;130.60;57.05;;;8.40;99.90;;;-144.05;89.85;56986.91;5037489;28;20029;-79
2023/02/23 07:14:41;;;;;;;133.35;58.03;;;8.40;99.90;;;-144.05;89.79;57014.50;5020543;28;20464;-80
2023/02/23 07:17:07;;;;;;;147.30;61.33;;;8.40;99.90;;;-144.05;89.74;56991.13;5037823;28;20113;-80
2023/02/23 07:19:33;;;;;;;130.82;57.22;;;8.40;99.90;;;-144.05;89.54;57010.25;5036551;28;20067;-79
2023/02/23 07:22:02;;;;;;;137.82;58.42;;;8.40;99.90;;;-144.05;89.67;57010.25;5037388;28;20080;-79
2023/02/23 07:24:28;;;;;;;138.10;60.08;;;8.40;99.90;;;-144.05;90.11;56989.00;5018403;28;20025;-78
2023/02/23 07:26:55;;;;;;;124.53;57.35;;;8.40;99.90;;;-144.05;89.53;57001.75;5036972;28;20040;-77
2023/02/23 07:29:26;;;;;;;133.98;57.42;;;8.40;99.90;;;-144.05;89.61;57010.25;5018762;28;20053;-79
2023/02/23 07:31:53;;;;;;;127.93;56.08;;;8.40;99.90;;;-144.05;89.64;57010.25;5036935;28;20108;-81
2023/02/23 07:34:19;;;;;;;134.05;61.03;;;8.40;99.90;;;-144.05;89.37;57003.88;5036936;28;20033;-78
2023/02/23 07:36:45;;;;;;;138.15;63.22;;;8.40;99.90;;;-144.05;89.59;57010.25;5037518;28;20029;-80
2023/02/23 07:39:11;;;;;;;148.30;62.55;;;8.40;99.90;;;-144.05;89.53;57010.25;5036708;28;20036;-78
2023/02/23 07:41:38;;;;;;;131.85;60.88;;;8.50;99.90;;;-144.05;89.29;56980.53;5021472;28;20080;-81
2023/02/23 07:44:04;;;;;;;149.98;61.83;;;8.40;99.90;;;-144.05;89.44;57014.50;5041264;28;20029;-78
2023/02/23 07:46:30;;;;;;;138.30;60.08;;;8.50;99.90;;;-144.05;89.38;56997.50;5022675;28;20388;-82
2023/02/23 07:48:56;;;;;;;153.25;68.22;;;8.50;99.90;;;-144.05;89.38;56991.13;5040397;28;20029;-80
2023/02/23 07:51:22;;;;;;;147.55;65.75;;;8.50;99.90;;;-144.05;89.39;57048.50;5040085;28;20033;-79
2023/02/23 07:53:48;;;;;;;142.95;61.38;;;8.50;99.90;;;-144.05;89.71;57016.63;5041064;28;20017;-79
2023/02/23 07:56:16;;;;;;;141.40;61.65;;;8.60;99.90;;;-144.05;89.39;56989.00;5040205;28;20056;-79
2023/02/23 07:58:44;;;;;;;151.45;64.95;;;8.60;99.90;;;-144.05;89.53;56991.13;5040159;28;20033;-80
2023/02/23 08:01:12;;;;;;;140.55;61.65;;;8.60;99.90;;;-144.05;89.42;56980.53;5039798;28;20434;-78
2023/02/23 08:03:38;;;;;;;138.38;60.67;;;8.60;99.90;;;-144.05;89.68;57018.75;5021573;28;20033;-79
2023/02/23 08:06:05;;;;;;;135.70;62.58;;;8.60;99.90;;;-144.05;89.18;56997.50;5038808;28;20026;-79
2023/02/23 08:08:34;;;;;;;139.25;60.90;;;8.60;99.90;;;-144.05;88.92;56989.00;5038698;28;20029;-80
2023/02/23 08:11:03;;;;;;;147.30;61.90;;;8.60;99.90;;;-144.05;88.43;57006.00;5038733;28;20030;-78
2023/02/23 08:13:30;;;;;;;137.73;59.95;;;8.60;99.90;;;-144.05;88.11;57006.00;5019458;28;20029;-78
2023/02/23 08:15:58;;;;;;;132.55;59.85;;;8.60;99.90;;;-144.05;87.99;56991.13;5038826;28;20033;-80
2023/02/23 08:18:26;;;;;;;128.35;60.97;;;8.60;99.90;;;-144.05;88.03;56993.25;5019404;28;20440;-78
2023/02/23 08:21:02;;;;;;;136.88;61.25;;;8.60;99.90;;;-144.05;88.16;56993.25;5038708;28;20030;-78
2023/02/23 08:23:32;;;;;;;132.57;58.78;;;8.60;99.90;;;-144.05;88.26;56986.91;5020990;28;20041;-79
2023/02/23 08:25:59;;;;;;;146.07;62.17;;;8.60;99.90;;;-144.05;88.07;57001.75;5039004;28;20037;-78
2023/02/23 08:28:27;;;;;;;143.07;59.42;;;8.60;99.90;;;-144.05;88.05;57014.50;5021312;28;20037;-78
2023/02/23 08:30:53;;;;;;;133.70;60.55;;;8.60;99.90;;;-144.05;87.93;57003.88;5020670;28;20029;-80
2023/02/23 08:33:20;;;;;;;136.27;62.10;;;8.70;99.90;;;-144.05;87.13;56993.25;5021375;28;20030;-80
2023/02/23 08:35:46;;;;;;;133.10;60.88;;;8.70;99.90;;;-144.05;87.57;57006.00;5038211;28;20033;-80
2023/02/23 08:38:12;;;;;;;136.05;60.78;;;8.70;99.90;;;-144.05;87.35;56993.25;5039276;28;20030;-81
2023/02/23 08:40:38;;;;;;;136.10;63.63;;;8.70;99.90;;;-144.05;87.39;56984.78;5038796;28;20044;-80
2023/02/23 08:43:04;;;;;;;126.50;58.83;;;8.70;99.90;;;-144.05;87.50;57001.75;5020807;28;20041;-80
2023/02/23 08:45:30;;;;;;;123.88;58.95;;;8.70;99.90;;;-144.05;87.19;57014.50;5037497;28;20033;-80
2023/02/23 08:47:56;;;;;;;111.45;52.42;;;8.70;99.90;;;-144.05;87.09;57003.88;5036695;28;20033;-76
2023/02/23 08:50:23;;;;;;;109.47;52.90;;;8.70;99.90;;;-144.05;87.20;57001.75;5019692;28;20124;-80
2023/02/23 08:52:49;;;;;;;113.88;52.85;;;8.60;99.90;;;-144.05;87.68;57001.75;5037835;28;20030;-77
2023/02/23 08:55:17;;;;;;;109.15;54.53;;;8.70;99.90;;;-144.05;87.45;56993.25;5022010;28;20068;-79
2023/02/23 08:57:43;;;;;;;107.18;50.92;;;8.70;99.90;;;-144.05;87.60;57018.75;5020998;28;20033;-79
2023/02/23 09:00:15;;;;;;;101.65;49.83;;;8.70;99.90;;;-144.05;87.96;57003.88;5039175;28;20112;-80
2023/02/23 09:02:44;;;;;;;97.50;48.58;;;8.60;99.90;;;-144.05;88.18;57003.88;5038169;28;20026;-78
2023/02/23 09:05:10;;;;;;;94.60;47.60;;;8.70;99.90;;;-144.05;88.10;57001.75;5019371;28;20121;-78
2023/02/23 09:07:39;;;;;;;98.78;47.33;;;8.60;99.90;;;-144.05;88.59;56980.53;5020053;28;20065;-77
2023/02/23 09:10:06;;;;;;;87.95;45.97;;;8.70;99.90;;;-144.05;88.50;57003.88;5042812;28;20033;-80
2023/02/23 09:12:32;;;;;;;83.10;42.05;;;8.70;99.90;;;-144.05;88.43;57010.25;5021373;28;20036;-81
2023/02/23 09:14:57;;;;;;;89.95;43.45;;;8.60;99.90;;;-144.05;88.56;57010.25;5020184;28;20034;-79
2023/02/23 09:17:25;;;;;;;88.82;46.08;;;8.70;99.90;;;-144.05;88.56;57008.13;5038791;28;20519;-78
2023/02/23 09:19:51;;;;;;;83.22;42.70;;;8.70;99.90;;;-144.05;88.95;57003.88;5019122;28;20029;-79
2023/02/23 09:22:19;;;;;;;76.43;40.70;;;8.80;99.90;;;-144.05;88.65;57020.88;5019961;28;20053;-79
2023/02/23 09:24:45;;;;;;;75.97;40.80;;;8.70;99.90;;;-144.05;88.57;57001.75;5037875;28;20029;-78
2023/02/23 09:27:11;;;;;;;79.13;41.80;;;8.80;99.90;;;-144.05;88.75;56991.13;5038083;28;20041;-80
2023/02/23 09:29:42;;;;;;;77.82;40.88;;;8.80;99.90;;;-144.05;87.82;56997.50;5037243;28;20033;-80
2023/02/23 09:32:09;;;;;;;71.65;41.83;;;8.70;99.90;;;-144.05;87.52;56974.16;5038141;28;20026;-80
2023/02/23 09:34:35;;;;;;;63.85;38.72;;;8.70;99.90;;;-144.05;87.07;57003.88;5038633;28;20038;-79
2023/02/23 09:37:02;;;;;;;72.75;38.40;;;8.80;99.90;;;-144.05;87.51;56984.78;5037475;28;20032;-79
2023/02/23 09:39:28;;;;;;;71.60;39.38;;;8.70;99.90;;;-144.05;87.78;56978.41;5037322;28;20040;-78
2023/02/23 09:42:32;;;;;;;71.65;39.25;;;8.80;99.90;;;-144.05;87.52;57010.25;5037114;28;20112;-79
2023/02/23 09:45:17;;;;;;;74.93;39.95;;;8.80;99.90;;;-144.05;87.47;57018.75;5037942;28;20037;-80
2023/02/23 09:48:26;;;;;;;67.72;36.38;;;8.90;99.90;;;-144.05;86.57;56999.63;5037723;28;20516;-80
2023/02/23 09:50:58;;;;;;;66.40;38.08;;;9.00;99.90;;;-144.05;86.74;56991.13;5029939;28;20052;-80
2023/02/23 09:53:52;;;;;;;64.93;37.20;;;9.30;99.90;;;-144.05;85.45;56978.41;5039539;28;20509;-78
2023/02/23 09:56:28;;;;;;;68.28;37.58;;;9.40;99.90;;;-144.05;85.10;56972.03;5039230;28;20034;-80
2023/02/23 09:58:54;;;;;;;63.67;36.83;;;9.50;99.90;;;-144.05;84.14;56993.25;5020825;28;20085;-80
2023/02/23 10:02:22;;;;;;;62.08;36.10;;;9.60;99.90;;;-144.05;83.60;56972.03;5038142;28;20029;-79
2023/02/23 10:05:04;;;;;;;;;;;9.60;99.90;;;-144.05;83.31;56991.13;5038712;28;20473;-79
2023/02/23 10:07:58;;;;;;;62.75;33.45;;;9.50;99.90;;;-144.05;83.31;56999.63;5037715;28;19920;-78
2023/02/23 10:10:52;;;;;;;67.68;36.67;;;9.40;99.90;;;-144.05;83.68;56997.50;5038323;28;20085;-80
2023/02/23 10:14:07;;;;;;;63.83;35.40;;;9.40;99.90;;;-144.05;84.12;56974.16;5022388;28;20093;-80
2023/02/23 10:17:28;;;;;;;57.63;31.40;;;9.40;99.90;;;-144.05;83.55;56997.50;5041832;28;20029;-79
2023/02/23 10:20:41;;;;;;;55.72;29.42;;;9.30;99.90;;;-144.05;83.61;57003.88;5017238;28;20029;-80
2023/02/23 10:23:20;;;;;;;58.10;30.40;;;9.20;99.90;;;-144.05;84.29;57003.88;5041227;28;20022;-79
2023/02/23 10:25:58;;;;;;;58.75;30.63;;;9.10;99.90;;;-144.05;84.13;57014.50;5050515;28;20025;-79
2023/02/23 10:28:28;;;;;;;63.72;31.92;;;9.00;99.90;;;-144.05;84.76;56986.91;5033604;28;20021;-80
2023/02/23 10:30:56;;;;;;;65.53;32.85;;;9.10;99.90;;;-144.05;84.72;56989.00;5051059;28;20120;-80
2023/02/23 10:33:41;;;;;;;69.07;34.05;;;9.10;99.90;;;-144.05;85.12;56999.63;5050168;28;20017;-79
2023/02/23 10:36:24;;;;;;;67.18;31.50;;;9.20;99.90;;;-144.05;84.42;56997.50;5020302;28;20104;-80
2023/02/23 10:38:50;;;;;;;65.65;32.75;;;9.20;99.90;;;-144.05;83.89;56989.00;5036869;28;20029;-81
2023/02/23 10:41:16;;;;;;;69.97;32.53;;;9.00;99.90;;;-144.05;84.08;57001.75;5037397;28;20033;-80
2023/02/23 10:43:42;;;;;;;72.15;34.33;;;9.10;99.90;;;-144.05;84.24;57008.13;5038068;28;20036;-78
2023/02/23 10:46:23;;;;;;;67.88;32.35;;;9.00;99.90;;;-144.05;84.46;57016.63;5020254;28;20048;-79
2023/02/23 10:48:55;;;;;;;67.40;33.35;;;9.10;99.90;;;-144.05;84.29;56997.50;5036994;28;20163;-80
2023/02/23 10:51:31;;;;;;;70.25;33.95;;;9.10;99.90;;;-144.05;83.94;56980.53;5019870;28;20093;-78
2023/02/23 10:53:57;;;;;;;74.10;34.00;;;9.10;99.90;;;-144.05;84.06;56984.78;5037850;28;20192;-79
2023/02/23 10:56:24;;;;;;;77.15;35.78;;;9.10;99.90;;;-144.05;83.57;57010.25;5018343;28;20065;-78
2023/02/23 10:58:55;;;;;;;74.93;34.63;;;9.00;99.90;;;-144.05;83.94;56980.53;5037730;28;20590;-77
2023/02/23 11:01:44;;;;;;;74.45;35.75;;;8.90;99.90;;;-144.05;84.41;57008.13;5020655;28;20404;-79
2023/02/23 11:04:33;;;;;;;72.47;35.03;;;9.00;99.90;;;-144.05;84.76;56986.91;5023412;28;20094;-80
2023/02/23 11:07:20;;;;;;;75.40;32.95;;;8.90;99.90;;;-144.05;84.57;56997.50;5039989;28;20049;-80
2023/02/23 11:09:45;;;;;;;63.58;31.70;;;8.90;99.90;;;-144.05;84.53;57014.50;5038074;28;20075;-83
2023/02/23 11:12:21;;;;;;;55.30;27.70;;;8.90;99.90;;;-144.05;83.92;56989.00;5019493;28;20033;-78
2023/02/23 11:14:51;;;;;;;63.03;31.13;;;8.80;99.90;;;-144.05;84.29;56995.38;5036732;28;20030;-78
2023/02/23 11:17:35;;;;;;;55.17;27.33;;;8.80;99.90;;;-144.05;84.73;56999.63;5037021;28;20033;-78
2023/02/23 11:20:23;;;;;;;51.10;26.80;;;8.70;99.90;;;-144.05;84.51;56993.25;5039438;28;20021;-78
2023/02/23 11:22:51;;;;;;;54.75;26.50;;;8.70;99.90;;;-144.05;84.47;56989.00;5020016;28;20029;-78
2023/02/23 11:25:28;;;;;;;49.88;25.88;;;8.70;99.90;;;-144.05;84.18;56967.78;5038398;28;20034;-78
2023/02/23 11:27:55;;;;;;;53.10;26.63;;;8.70;99.90;;;-144.05;84.57;57001.75;5039311;28;20101;-79
2023/02/23 11:30:29;;;;;;;53.08;27.75;;;8.60;99.90;;;-144.05;84.29;57001.75;5039570;28;20396;-78
2023/02/23 11:33:09;;;;;;;54.72;27.50;;;8.70;99.90;;;-144.05;84.39;56984.78;5039266;28;20048;-78
2023/02/23 11:35:37;;;;;;;72.95;36.55;;;8.60;99.90;;;-144.05;84.61;57018.75;5039171;28;20116;-80
2023/02/23 11:38:27;;;;;;;61.70;30.52;;;8.60;99.90;;;-144.05;84.52;57001.75;5039382;28;20029;-77
2023/02/23 11:41:16;;;;;;;56.28;28.40;;;8.60;99.90;;;-144.05;84.39;56980.53;5040500;28;20029;-80